sensor_id;sensor_type;location;lat;lon;timestamp;pressure;altitude;pressure_sealevel;temperature;humidity
56811;BME280;42691;47.234;27.494;2023-01-30T00:00:13;99886.75;;;6.31;100.00
56811;BME280;42691;47.234;27.494;2023-01-30T00:02:39;99879.91;;;6.30;100.00
56811;BME280;42691;47.234;27.494;2023-01-30T00:05:04;99887.66;;;6.30;100.00
56811;BME280;42691;47.234;27.494;2023-01-30T00:07:30;99888.53;;;6.28;100.00
56811;BME280;42691;47.234;27.494;2023-01-30T00:09:55;99890.25;;;6.30;100.00
56811;BME280;42691;47.234;27.494;2023-01-30T00:12:21;99892.03;;;6.27;100.00
56811;BME280;42691;47.234;27.494;2023-01-30T00:14:46;99891.25;;;6.24;100.00
56811;BME280;42691;47.234;27.494;2023-01-30T00:17:11;99886.09;;;6.24;100.00
56811;BME280;42691;47.234;27.494;2023-01-30T00:19:37;99887.81;;;6.23;100.00
56811;BME280;42691;47.234;27.494;2023-01-30T00:22:02;99893.84;;;6.24;100.00
56811;BME280;42691;47.234;27.494;2023-01-30T00:24:28;99882.78;;;6.19;100.00
56811;BME280;42691;47.234;27.494;2023-01-30T00:26:53;99893.84;;;6.24;100.00
56811;BME280;42691;47.234;27.494;2023-01-30T00:29:18;99889.59;;;6.21;100.00
56811;BME280;42691;47.234;27.494;2023-01-30T00:31:44;99885.28;;;6.22;100.00
56811;BME280;42691;47.234;27.494;2023-01-30T00:34:09;99886.19;;;6.21;100.00
56811;BME280;42691;47.234;27.494;2023-01-30T00:36:35;99878.47;;;6.19;100.00
56811;BME280;42691;47.234;27.494;2023-01-30T00:39:00;99879.31;;;6.20;100.00
56811;BME280;42691;47.234;27.494;2023-01-30T00:41:25;99881.84;;;6.21;100.00
56811;BME280;42691;47.234;27.494;2023-01-30T00:44:11;99865.56;;;6.19;100.00
56811;BME280;42691;47.234;27.494;2023-01-30T00:46:55;99856.09;;;6.18;100.00
56811;BME280;42691;47.234;27.494;2023-01-30T00:49:29;99855.19;;;6.21;100.00
56811;BME280;42691;47.234;27.494;2023-01-30T00:51:54;99848.31;;;6.20;100.00
56811;BME280;42691;47.234;27.494;2023-01-30T00:54:20;99845.78;;;6.18;100.00
56811;BME280;42691;47.234;27.494;2023-01-30T00:56:45;99840.56;;;6.20;100.00
56811;BME280;42691;47.234;27.494;2023-01-30T00:59:11;99837.13;;;6.19;100.00
56811;BME280;42691;47.234;27.494;2023-01-30T01:01:36;99840.69;;;6.15;100.00
56811;BME280;42691;47.234;27.494;2023-01-30T01:04:02;99837.19;;;6.18;100.00
56811;BME280;42691;47.234;27.494;2023-01-30T01:06:27;99838.91;;;6.17;100.00
56811;BME280;42691;47.234;27.494;2023-01-30T01:08:53;99830.38;;;6.15;100.00
56811;BME280;42691;47.234;27.494;2023-01-30T01:11:18;99826.97;;;6.13;100.00
56811;BME280;42691;47.234;27.494;2023-01-30T01:13:55;99830.44;;;6.12;100.00
56811;BME280;42691;47.234;27.494;2023-01-30T01:16:22;99822.66;;;6.14;100.00
56811;BME280;42691;47.234;27.494;2023-01-30T01:18:48;99823.50;;;6.14;100.00
56811;BME280;42691;47.234;27.494;2023-01-30T01:21:13;99827.75;;;6.17;100.00
56811;BME280;42691;47.234;27.494;2023-01-30T01:23:39;99822.63;;;6.15;100.00
56811;BME280;42691;47.234;27.494;2023-01-30T01:26:04;99822.66;;;6.14;100.00
56811;BME280;42691;47.234;27.494;2023-01-30T01:28:30;99819.09;;;6.18;100.00
56811;BME280;42691;47.234;27.494;2023-01-30T01:30:55;99823.19;;;6.25;100.00
56811;BME280;42691;47.234;27.494;2023-01-30T01:33:25;99819.78;;;6.24;100.00
56811;BME280;42691;47.234;27.494;2023-01-30T01:35:54;99830.09;;;6.24;100.00
56811;BME280;42691;47.234;27.494;2023-01-30T01:38:20;99827.59;;;6.21;100.00
56811;BME280;42691;47.234;27.494;2023-01-30T01:40:45;99831.09;;;6.20;100.00
56811;BME280;42691;47.234;27.494;2023-01-30T01:43:28;99822.56;;;6.17;100.00
56811;BME280;42691;47.234;27.494;2023-01-30T01:45:58;99830.38;;;6.15;100.00
56811;BME280;42691;47.234;27.494;2023-01-30T01:48:29;99821.81;;;6.13;100.00
56811;BME280;42691;47.234;27.494;2023-01-30T01:51:04;99821.09;;;6.08;100.00
56811;BME280;42691;47.234;27.494;2023-01-30T01:53:35;99812.69;;;6.02;100.00
56811;BME280;42691;47.234;27.494;2023-01-30T01:56:04;99804.97;;;6.00;100.00
56811;BME280;42691;47.234;27.494;2023-01-30T01:58:41;99803.28;;;5.99;100.00
56811;BME280;42691;47.234;27.494;2023-01-30T02:01:09;99803.28;;;5.99;100.00
56811;BME280;42691;47.234;27.494;2023-01-30T02:03:39;99804.25;;;5.95;100.00
56811;BME280;42691;47.234;27.494;2023-01-30T02:06:07;99805.16;;;5.92;100.00
56811;BME280;42691;47.234;27.494;2023-01-30T02:08:37;99806.00;;;5.93;100.00
56811;BME280;42691;47.234;27.494;2023-01-30T02:11:23;99808.66;;;5.90;100.00
56811;BME280;42691;47.234;27.494;2023-01-30T02:13:51;99810.41;;;5.88;100.00
56811;BME280;42691;47.234;27.494;2023-01-30T02:16:17;99781.38;;;5.80;100.00
56811;BME280;42691;47.234;27.494;2023-01-30T02:18:44;99795.81;;;5.87;100.00
56811;BME280;42691;47.234;27.494;2023-01-30T02:27:13;99770.34;;;5.75;100.00
56811;BME280;42691;47.234;27.494;2023-01-30T02:48:40;99766.19;;;5.69;100.00
56811;BME280;42691;47.234;27.494;2023-01-30T02:51:23;99766.31;;;5.64;100.00
56811;BME280;42691;47.234;27.494;2023-01-30T02:53:50;99762.94;;;5.62;100.00
56811;BME280;42691;47.234;27.494;2023-01-30T02:56:16;99762.19;;;5.57;100.00
56811;BME280;42691;47.234;27.494;2023-01-30T02:59:04;99759.69;;;5.54;100.00
56811;BME280;42691;47.234;27.494;2023-01-30T03:01:50;99756.25;;;5.54;100.00
56811;BME280;42691;47.234;27.494;2023-01-30T03:17:49;99720.84;;;5.28;100.00
56811;BME280;42691;47.234;27.494;2023-01-30T03:20:17;99749.78;;;5.39;100.00
56811;BME280;42691;47.234;27.494;2023-01-30T03:22:43;99749.69;;;5.42;100.00
56811;BME280;42691;47.234;27.494;2023-01-30T03:25:11;99737.84;;;5.35;100.00
56811;BME280;42691;47.234;27.494;2023-01-30T03:27:39;99746.22;;;5.43;100.00
56811;BME280;42691;47.234;27.494;2023-01-30T03:30:05;99744.63;;;5.39;100.00
56811;BME280;42691;47.234;27.494;2023-01-30T03:32:30;99747.91;;;5.44;100.00
56811;BME280;42691;47.234;27.494;2023-01-30T03:34:56;99736.75;;;5.44;100.00
56811;BME280;42691;47.234;27.494;2023-01-30T03:37:21;99735.94;;;5.42;100.00
56811;BME280;42691;47.234;27.494;2023-01-30T03:39:46;99734.22;;;5.42;100.00
56811;BME280;42691;47.234;27.494;2023-01-30T03:42:12;99729.06;;;5.42;100.00
56811;BME280;42691;47.234;27.494;2023-01-30T03:44:37;99733.38;;;5.42;100.00
56811;BME280;42691;47.234;27.494;2023-01-30T03:47:03;99734.28;;;5.39;100.00
56811;BME280;42691;47.234;27.494;2023-01-30T03:49:28;99715.59;;;5.31;100.00
56811;BME280;42691;47.234;27.494;2023-01-30T03:51:54;99720.69;;;5.34;100.00
56811;BME280;42691;47.234;27.494;2023-01-30T03:54:19;99718.81;;;5.39;100.00
56811;BME280;42691;47.234;27.494;2023-01-30T03:56:44;99714.50;;;5.40;100.00
56811;BME280;42691;47.234;27.494;2023-01-30T03:59:10;99706.81;;;5.38;100.00
56811;BME280;42691;47.234;27.494;2023-01-30T04:01:35;99704.19;;;5.40;100.00
56811;BME280;42691;47.234;27.494;2023-01-30T04:04:01;99710.19;;;5.40;100.00
56811;BME280;42691;47.234;27.494;2023-01-30T04:06:26;99706.00;;;5.36;100.00
56811;BME280;42691;47.234;27.494;2023-01-30T04:08:53;99702.53;;;5.37;100.00
56811;BME280;42691;47.234;27.494;2023-01-30T04:11:19;99701.56;;;5.41;100.00
56811;BME280;42691;47.234;27.494;2023-01-30T04:13:44;99697.28;;;5.40;100.00
56811;BME280;42691;47.234;27.494;2023-01-30T04:16:24;99695.56;;;5.41;100.00
56811;BME280;42691;47.234;27.494;2023-01-30T04:18:50;99684.56;;;5.34;100.00
56811;BME280;42691;47.234;27.494;2023-01-30T04:21:16;99693.03;;;5.39;100.00
56811;BME280;42691;47.234;27.494;2023-01-30T04:23:42;99677.78;;;5.30;100.00
56811;BME280;42691;47.234;27.494;2023-01-30T04:26:08;99685.41;;;5.34;100.00
56811;BME280;42691;47.234;27.494;2023-01-30T04:28:34;99681.94;;;5.36;100.00
56811;BME280;42691;47.234;27.494;2023-01-30T04:31:00;99682.78;;;5.36;100.00
56811;BME280;42691;47.234;27.494;2023-01-30T04:33:26;99667.47;;;5.30;100.00
56811;BME280;42691;47.234;27.494;2023-01-30T04:35:53;99679.38;;;5.36;100.00
56811;BME280;42691;47.234;27.494;2023-01-30T04:38:19;99679.41;;;5.34;100.00
56811;BME280;42691;47.234;27.494;2023-01-30T04:40:48;99667.41;;;5.33;100.00
56811;BME280;42691;47.234;27.494;2023-01-30T04:43:14;99668.16;;;5.37;100.00
56811;BME280;42691;47.234;27.494;2023-01-30T04:45:43;99664.78;;;5.34;100.00
56811;BME280;42691;47.234;27.494;2023-01-30T04:48:09;99663.94;;;5.34;100.00
56811;BME280;42691;47.234;27.494;2023-01-30T04:50:35;99654.66;;;5.27;100.00
56811;BME280;42691;47.234;27.494;2023-01-30T04:53:00;99664.09;;;5.28;100.00
56811;BME280;42691;47.234;27.494;2023-01-30T04:55:26;99648.00;;;5.18;100.00
56811;BME280;42691;47.234;27.494;2023-01-30T04:57:51;99657.41;;;5.21;100.00
56811;BME280;42691;47.234;27.494;2023-01-30T05:00:17;99626.06;;;5.03;100.00
56811;BME280;42691;47.234;27.494;2023-01-30T05:02:42;99653.94;;;5.22;100.00
56811;BME280;42691;47.234;27.494;2023-01-30T05:05:08;99659.16;;;5.19;100.00
56811;BME280;42691;47.234;27.494;2023-01-30T05:07:33;99661.81;;;5.16;100.00
56811;BME280;42691;47.234;27.494;2023-01-30T05:09:59;99656.03;;;5.08;100.00
56811;BME280;42691;47.234;27.494;2023-01-30T05:12:24;99664.47;;;5.13;100.00
56811;BME280;42691;47.234;27.494;2023-01-30T05:14:50;99615.28;;;4.89;100.00
56811;BME280;42691;47.234;27.494;2023-01-30T05:17:15;99654.09;;;5.16;100.00
56811;BME280;42691;47.234;27.494;2023-01-30T05:19:41;99648.22;;;5.11;100.00
56811;BME280;42691;47.234;27.494;2023-01-30T05:22:06;99650.63;;;5.17;100.00
56811;BME280;42691;47.234;27.494;2023-01-30T05:24:31;99644.53;;;5.21;100.00
56811;BME280;42691;47.234;27.494;2023-01-30T05:26:57;99620.00;;;5.05;100.00
56811;BME280;42691;47.234;27.494;2023-01-30T05:29:22;99655.69;;;5.20;100.00
56811;BME280;42691;47.234;27.494;2023-01-30T05:31:48;99618.31;;;5.03;100.00
56811;BME280;42691;47.234;27.494;2023-01-30T05:34:13;99652.25;;;5.21;100.00
56811;BME280;42691;47.234;27.494;2023-01-30T05:36:39;99646.25;;;5.19;100.00
56811;BME280;42691;47.234;27.494;2023-01-30T05:39:04;99648.03;;;5.17;100.00
56811;BME280;42691;47.234;27.494;2023-01-30T05:41:29;99650.69;;;5.14;100.00
56811;BME280;42691;47.234;27.494;2023-01-30T05:43:55;99652.41;;;5.15;100.00
56811;BME280;42691;47.234;27.494;2023-01-30T05:46:20;99652.41;;;5.15;100.00
56811;BME280;42691;47.234;27.494;2023-01-30T05:48:46;99650.69;;;5.14;100.00
56811;BME280;42691;47.234;27.494;2023-01-30T05:51:20;99647.97;;;5.20;100.00
56811;BME280;42691;47.234;27.494;2023-01-30T05:53:46;99649.63;;;5.22;100.00
56811;BME280;42691;47.234;27.494;2023-01-30T05:56:12;99643.63;;;5.22;100.00
56811;BME280;42691;47.234;27.494;2023-01-30T05:58:38;99640.16;;;5.23;100.00
56811;BME280;42691;47.234;27.494;2023-01-30T06:01:06;99638.47;;;5.22;100.00
56811;BME280;42691;47.234;27.494;2023-01-30T06:03:34;99634.13;;;5.24;100.00
56811;BME280;42691;47.234;27.494;2023-01-30T06:06:03;99640.09;;;5.26;100.00
56811;BME280;42691;47.234;27.494;2023-01-30T06:08:31;99614.38;;;5.23;100.00
56811;BME280;42691;47.234;27.494;2023-01-30T06:11:08;99632.00;;;5.38;100.00
56811;BME280;42691;47.234;27.494;2023-01-30T06:13:34;99627.59;;;5.42;100.00
56811;BME280;42691;47.234;27.494;2023-01-30T06:16:00;99624.97;;;5.43;100.00
56811;BME280;42691;47.234;27.494;2023-01-30T06:18:26;99623.28;;;5.42;100.00
56811;BME280;42691;47.234;27.494;2023-01-30T06:20:52;99617.09;;;5.48;100.00
56811;BME280;42691;47.234;27.494;2023-01-30T06:23:18;99599.97;;;5.45;100.00
56811;BME280;42691;47.234;27.494;2023-01-30T06:25:48;99609.91;;;5.59;100.00
56811;BME280;42691;47.234;27.494;2023-01-30T06:28:14;99612.31;;;5.65;100.00
56811;BME280;42691;47.234;27.494;2023-01-30T06:30:40;99617.47;;;5.65;100.00
56811;BME280;42691;47.234;27.494;2023-01-30T06:33:06;99608.00;;;5.65;100.00
56811;BME280;42691;47.234;27.494;2023-01-30T06:35:32;99618.94;;;5.74;100.00
56811;BME280;42691;47.234;27.494;2023-01-30T06:37:57;99596.00;;;5.64;100.00
56811;BME280;42691;47.234;27.494;2023-01-30T06:40:23;99619.38;;;5.88;100.00
56811;BME280;42691;47.234;27.494;2023-01-30T06:42:49;99581.13;;;5.73;100.00
56811;BME280;42691;47.234;27.494;2023-01-30T06:45:17;99612.19;;;5.99;100.00
56811;BME280;42691;47.234;27.494;2023-01-30T06:47:50;99612.84;;;6.06;100.00
56811;BME280;42691;47.234;27.494;2023-01-30T06:50:17;99607.91;;;5.98;100.00
56811;BME280;42691;47.234;27.494;2023-01-30T06:52:45;99611.66;;;5.86;100.00
56811;BME280;42691;47.234;27.494;2023-01-30T06:55:13;99608.97;;;5.91;100.00
56811;BME280;42691;47.234;27.494;2023-01-30T06:57:39;99616.50;;;5.99;100.00
56811;BME280;42691;47.234;27.494;2023-01-30T07:00:06;99600.09;;;6.01;100.00
56811;BME280;42691;47.234;27.494;2023-01-30T07:02:34;99605.25;;;6.01;100.00
56811;BME280;42691;47.234;27.494;2023-01-30T07:05:01;99602.56;;;6.04;100.00
56811;BME280;42691;47.234;27.494;2023-01-30T07:07:30;99592.84;;;6.12;100.00
56811;BME280;42691;47.234;27.494;2023-01-30T07:09:56;99584.19;;;6.13;100.00
56811;BME280;42691;47.234;27.494;2023-01-30T07:12:22;99597.50;;;6.27;100.00
56811;BME280;42691;47.234;27.494;2023-01-30T07:14:49;99597.34;;;6.34;100.00
56811;BME280;42691;47.234;27.494;2023-01-30T07:17:14;99586.69;;;6.43;100.00
56811;BME280;42691;47.234;27.494;2023-01-30T07:19:41;99589.88;;;6.51;100.00
56811;BME280;42691;47.234;27.494;2023-01-30T07:22:06;99587.75;;;6.62;100.00
56811;BME280;42691;47.234;27.494;2023-01-30T07:24:32;99578.16;;;6.66;100.00
56811;BME280;42691;47.234;27.494;2023-01-30T07:26:57;99577.09;;;6.73;100.00
56811;BME280;42691;47.234;27.494;2023-01-30T07:29:22;99579.41;;;6.80;100.00
56811;BME280;42691;47.234;27.494;2023-01-30T07:31:48;99572.44;;;6.82;100.00
56811;BME280;42691;47.234;27.494;2023-01-30T07:34:13;99570.59;;;6.86;100.00
56811;BME280;42691;47.234;27.494;2023-01-30T07:36:39;99571.31;;;6.89;100.00
56811;BME280;42691;47.234;27.494;2023-01-30T07:39:04;99567.09;;;6.87;100.00
56811;BME280;42691;47.234;27.494;2023-01-30T07:41:30;99573.63;;;6.97;100.00
56811;BME280;42691;47.234;27.494;2023-01-30T07:43:55;99566.50;;;7.04;100.00
56811;BME280;42691;47.234;27.494;2023-01-30T07:46:21;99562.72;;;7.14;100.00
56811;BME280;42691;47.234;27.494;2023-01-30T07:48:46;99558.22;;;7.19;100.00
56811;BME280;42691;47.234;27.494;2023-01-30T07:51:12;99555.22;;;7.30;100.00
56811;BME280;42691;47.234;27.494;2023-01-30T07:53:37;99553.91;;;7.41;100.00
56811;BME280;42691;47.234;27.494;2023-01-30T07:56:09;99543.34;;;7.47;100.00
56811;BME280;42691;47.234;27.494;2023-01-30T07:58:38;99533.38;;;7.60;100.00
56811;BME280;42691;47.234;27.494;2023-01-30T08:01:04;99520.13;;;7.68;100.00
56811;BME280;42691;47.234;27.494;2023-01-30T08:03:30;99517.97;;;7.79;100.00
56811;BME280;42691;47.234;27.494;2023-01-30T08:05:55;99518.16;;;7.96;100.00
56811;BME280;42691;47.234;27.494;2023-01-30T08:08:21;99515.69;;;7.93;100.00
56811;BME280;42691;47.234;27.494;2023-01-30T08:10:49;99510.91;;;8.04;100.00
56811;BME280;42691;47.234;27.494;2023-01-30T08:13:15;99509.63;;;8.14;100.00
56811;BME280;42691;47.234;27.494;2023-01-30T08:15:41;99505.34;;;8.13;100.00
56811;BME280;42691;47.234;27.494;2023-01-30T08:18:06;99508.66;;;8.17;100.00
56811;BME280;42691;47.234;27.494;2023-01-30T08:20:32;99500.59;;;8.25;100.00
56811;BME280;42691;47.234;27.494;2023-01-30T08:22:58;99503.19;;;8.25;100.00
56811;BME280;42691;47.234;27.494;2023-01-30T08:25:24;99495.28;;;8.28;100.00
56811;BME280;42691;47.234;27.494;2023-01-30T08:27:50;99496.13;;;8.28;100.00
56811;BME280;42691;47.234;27.494;2023-01-30T08:30:17;99492.50;;;8.32;100.00
56811;BME280;42691;47.234;27.494;2023-01-30T08:32:43;99488.69;;;8.41;100.00
56811;BME280;42691;47.234;27.494;2023-01-30T08:35:09;99485.38;;;8.37;100.00
56811;BME280;42691;47.234;27.494;2023-01-30T08:37:34;99482.72;;;8.39;100.00
56811;BME280;42691;47.234;27.494;2023-01-30T08:40:00;99477.56;;;8.39;100.00
56811;BME280;42691;47.234;27.494;2023-01-30T08:42:25;99480.38;;;8.53;100.00
56811;BME280;42691;47.234;27.494;2023-01-30T08:44:51;99473.34;;;8.57;100.00
56811;BME280;42691;47.234;27.494;2023-01-30T08:47:16;99469.72;;;8.61;100.00
56811;BME280;42691;47.234;27.494;2023-01-30T08:49:42;99470.00;;;8.73;100.00
56811;BME280;42691;47.234;27.494;2023-01-30T08:52:07;99466.72;;;8.70;100.00
56811;BME280;42691;47.234;27.494;2023-01-30T08:54:33;99459.84;;;8.69;100.00
56811;BME280;42691;47.234;27.494;2023-01-30T08:56:58;99448.63;;;8.68;100.00
56811;BME280;42691;47.234;27.494;2023-01-30T08:59:23;99452.47;;;8.78;100.00
56811;BME280;42691;47.234;27.494;2023-01-30T09:01:49;99449.75;;;8.82;100.00
56811;BME280;42691;47.234;27.494;2023-01-30T09:04:14;99437.22;;;8.91;100.00
56811;BME280;42691;47.234;27.494;2023-01-30T09:06:40;99435.06;;;9.01;100.00
56811;BME280;42691;47.234;27.494;2023-01-30T09:09:05;99413.19;;;9.06;100.00
56811;BME280;42691;47.234;27.494;2023-01-30T09:11:30;99410.78;;;9.21;100.00
56811;BME280;42691;47.234;27.494;2023-01-30T09:13:56;99392.59;;;9.21;100.00
56811;BME280;42691;47.234;27.494;2023-01-30T09:16:21;99388.09;;;9.24;100.00
56811;BME280;42691;47.234;27.494;2023-01-30T09:18:47;99373.81;;;9.34;100.00
56811;BME280;42691;47.234;27.494;2023-01-30T09:21:12;99372.88;;;9.35;100.00
56811;BME280;42691;47.234;27.494;2023-01-30T09:23:38;99379.59;;;9.39;100.00
56811;BME280;42691;47.234;27.494;2023-01-30T09:26:04;99366.25;;;9.47;100.00
56811;BME280;42691;47.234;27.494;2023-01-30T09:28:30;99363.44;;;9.52;100.00
56811;BME280;42691;47.234;27.494;2023-01-30T09:30:57;99358.16;;;9.53;100.00
56811;BME280;42691;47.234;27.494;2023-01-30T09:33:23;99342.72;;;9.50;100.00
56811;BME280;42691;47.234;27.494;2023-01-30T09:35:48;99344.03;;;9.59;100.00
56811;BME280;42691;47.234;27.494;2023-01-30T09:38:14;99344.03;;;9.59;100.00
56811;BME280;42691;47.234;27.494;2023-01-30T09:48:33;99313.03;;;9.56;100.00
56811;BME280;42691;47.234;27.494;2023-01-30T09:51:13;99313.19;;;9.53;100.00
56811;BME280;42691;47.234;27.494;2023-01-30T09:54:24;99289.66;;;9.56;100.00
56811;BME280;42691;47.234;27.494;2023-01-30T09:57:11;99295.44;;;9.61;100.00
56811;BME280;42691;47.234;27.494;2023-01-30T09:59:46;99287.41;;;9.65;100.00
56811;BME280;42691;47.234;27.494;2023-01-30T10:02:37;99273.47;;;9.68;100.00
56811;BME280;42691;47.234;27.494;2023-01-30T10:05:05;99269.06;;;9.86;100.00
56811;BME280;42691;47.234;27.494;2023-01-30T10:16:09;99237.50;;;9.93;100.00
56811;BME280;42691;47.234;27.494;2023-01-30T10:18:47;99230.53;;;9.94;100.00
56811;BME280;42691;47.234;27.494;2023-01-30T10:21:49;99217.97;;;9.86;100.00
56811;BME280;42691;47.234;27.494;2023-01-30T10:27:17;99209.41;;;9.84;100.00
56811;BME280;42691;47.234;27.494;2023-01-30T10:29:52;99202.03;;;9.92;100.00
56811;BME280;42691;47.234;27.494;2023-01-30T10:32:29;99192.81;;;10.02;100.00
56811;BME280;42691;47.234;27.494;2023-01-30T10:35:05;99183.13;;;10.06;100.00
56811;BME280;42691;47.234;27.494;2023-01-30T10:37:49;99181.75;;;9.99;100.00
56811;BME280;42691;47.234;27.494;2023-01-30T10:40:38;99173.56;;;10.07;100.00
56811;BME280;42691;47.234;27.494;2023-01-30T10:43:37;99168.69;;;10.00;100.00
56811;BME280;42691;47.234;27.494;2023-01-30T10:46:15;99161.34;;;10.09;100.00
56811;BME280;42691;47.234;27.494;2023-01-30T10:52:35;99148.94;;;10.14;100.00
56811;BME280;42691;47.234;27.494;2023-01-30T10:54:34;99140.81;;;10.04;100.00
56811;BME280;42691;47.234;27.494;2023-01-30T11:02:22;99125.88;;;10.08;100.00
56811;BME280;42691;47.234;27.494;2023-01-30T11:05:00;99117.75;;;10.14;100.00
56811;BME280;42691;47.234;27.494;2023-01-30T11:07:30;99111.78;;;10.12;100.00
56811;BME280;42691;47.234;27.494;2023-01-30T11:09:57;99113.13;;;10.19;100.00
56811;BME280;42691;47.234;27.494;2023-01-30T11:12:23;99098.63;;;10.15;100.00
56811;BME280;42691;47.234;27.494;2023-01-30T11:17:17;99090.06;;;10.28;100.00
56811;BME280;42691;47.234;27.494;2023-01-30T11:19:43;99072.44;;;10.18;100.00
56811;BME280;42691;47.234;27.494;2023-01-30T11:22:12;99067.25;;;10.02;100.00
56811;BME280;42691;47.234;27.494;2023-01-30T11:24:39;99070.03;;;10.15;100.00
56811;BME280;42691;47.234;27.494;2023-01-30T11:27:20;99069.09;;;10.16;100.00
56811;BME280;42691;47.234;27.494;2023-01-30T11:29:48;99057.38;;;10.09;100.00
56811;BME280;42691;47.234;27.494;2023-01-30T11:32:34;99055.00;;;10.20;100.00
56811;BME280;42691;47.234;27.494;2023-01-30T11:37:33;99040.69;;;10.13;100.00
56811;BME280;42691;47.234;27.494;2023-01-30T11:40:27;99023.91;;;10.02;100.00
56811;BME280;42691;47.234;27.494;2023-01-30T11:43:00;99029.53;;;10.11;100.00
56811;BME280;42691;47.234;27.494;2023-01-30T11:45:26;99033.25;;;10.07;100.00
56811;BME280;42691;47.234;27.494;2023-01-30T11:48:00;99017.47;;;10.10;100.00
56811;BME280;42691;47.234;27.494;2023-01-30T11:50:48;99011.00;;;10.17;100.00
56811;BME280;42691;47.234;27.494;2023-01-30T11:55:45;99000.28;;;10.23;100.00
56811;BME280;42691;47.234;27.494;2023-01-30T11:58:11;98999.19;;;10.27;100.00
56811;BME280;42691;47.234;27.494;2023-01-30T12:00:40;98991.75;;;10.35;100.00
56811;BME280;42691;47.234;27.494;2023-01-30T12:03:11;98981.19;;;10.38;100.00
56811;BME280;42691;47.234;27.494;2023-01-30T12:05:38;98992.31;;;10.26;100.00
56811;BME280;42691;47.234;27.494;2023-01-30T12:10:47;98972.38;;;10.11;100.00
56811;BME280;42691;47.234;27.494;2023-01-30T12:15:45;98967.91;;;10.13;100.00
56811;BME280;42691;47.234;27.494;2023-01-30T12:20:59;98956.09;;;10.23;100.00
56811;BME280;42691;47.234;27.494;2023-01-30T12:23:45;98954.16;;;10.26;100.00
56811;BME280;42691;47.234;27.494;2023-01-30T12:26:33;98957.00;;;10.22;100.00
56811;BME280;42691;47.234;27.494;2023-01-30T12:29:23;98959.72;;;10.34;100.00
56811;BME280;42691;47.234;27.494;2023-01-30T12:32:12;98953.03;;;10.30;100.00
56811;BME280;42691;47.234;27.494;2023-01-30T12:34:40;98939.13;;;10.31;100.00
56811;BME280;42691;47.234;27.494;2023-01-30T12:42:56;98942.03;;;10.41;100.00
56811;BME280;42691;47.234;27.494;2023-01-30T12:45:29;98928.25;;;10.39;100.00
56811;BME280;42691;47.234;27.494;2023-01-30T12:53:35;98914.31;;;10.26;100.00
56811;BME280;42691;47.234;27.494;2023-01-30T12:56:19;98907.72;;;10.34;100.00
56811;BME280;42691;47.234;27.494;2023-01-30T12:59:05;98904.00;;;10.39;100.00
56811;BME280;42691;47.234;27.494;2023-01-30T13:07:07;98892.25;;;10.47;100.00
56811;BME280;42691;47.234;27.494;2023-01-30T13:17:52;98881.09;;;10.59;100.00
56811;BME280;42691;47.234;27.494;2023-01-30T13:28:25;98859.28;;;10.62;100.00
56811;BME280;42691;47.234;27.494;2023-01-30T13:30:52;98855.44;;;10.68;100.00
56811;BME280;42691;47.234;27.494;2023-01-30T13:33:25;98838.19;;;10.67;100.00
56811;BME280;42691;47.234;27.494;2023-01-30T13:38:27;98837.97;;;10.70;100.00
56811;BME280;42691;47.234;27.494;2023-01-30T13:40:56;98836.66;;;10.77;100.00
56811;BME280;42691;47.234;27.494;2023-01-30T13:45:57;98833.72;;;10.69;100.00
56811;BME280;42691;47.234;27.494;2023-01-30T13:48:45;98822.47;;;10.68;100.00
56811;BME280;42691;47.234;27.494;2023-01-30T13:58:57;98809.94;;;10.60;100.00
56811;BME280;42691;47.234;27.494;2023-01-30T14:12:36;98797.88;;;10.59;100.00
56811;BME280;42691;47.234;27.494;2023-01-30T14:18:04;98792.59;;;10.47;100.00
56811;BME280;42691;47.234;27.494;2023-01-30T14:20:34;98785.84;;;10.44;100.00
56811;BME280;42691;47.234;27.494;2023-01-30T14:23:04;98786.56;;;10.46;100.00
56811;BME280;42691;47.234;27.494;2023-01-30T14:25:33;98773.03;;;10.41;100.00
56811;BME280;42691;47.234;27.494;2023-01-30T14:32:58;98776.06;;;10.48;100.00
56811;BME280;42691;47.234;27.494;2023-01-30T14:35:33;98768.66;;;10.42;100.00
56811;BME280;42691;47.234;27.494;2023-01-30T14:38:17;98777.56;;;10.38;100.00
56811;BME280;42691;47.234;27.494;2023-01-30T14:43:35;98755.19;;;10.21;100.00
56811;BME280;42691;47.234;27.494;2023-01-30T15:07:08;98745.25;;;10.13;97.10
56811;BME280;42691;47.234;27.494;2023-01-30T15:09:37;98754.91;;;10.11;97.89
56811;BME280;42691;47.234;27.494;2023-01-30T15:23:49;98753.69;;;10.02;97.67
56811;BME280;42691;47.234;27.494;2023-01-30T15:32:02;98749.31;;;9.89;100.00
56811;BME280;42691;47.234;27.494;2023-01-30T15:34:37;98756.19;;;9.90;100.00
56811;BME280;42691;47.234;27.494;2023-01-30T15:37:39;98751.72;;;9.78;100.00
56811;BME280;42691;47.234;27.494;2023-01-30T15:45:28;98762.00;;;9.65;100.00
56811;BME280;42691;47.234;27.494;2023-01-30T15:48:26;98765.59;;;9.62;100.00
56811;BME280;42691;47.234;27.494;2023-01-30T15:50:58;98754.19;;;9.51;100.00
56811;BME280;42691;47.234;27.494;2023-01-30T15:53:44;98760.38;;;9.48;100.00
56811;BME280;42691;47.234;27.494;2023-01-30T15:56:16;98771.63;;;9.49;100.00
56811;BME280;42691;47.234;27.494;2023-01-30T15:58:44;98763.25;;;9.44;100.00
56811;BME280;42691;47.234;27.494;2023-01-30T16:01:11;98770.31;;;9.42;100.00
56811;BME280;42691;47.234;27.494;2023-01-30T16:03:41;98760.75;;;9.42;100.00
56811;BME280;42691;47.234;27.494;2023-01-30T16:06:30;98764.63;;;9.35;100.00
56811;BME280;42691;47.234;27.494;2023-01-30T16:09:15;98763.88;;;9.33;100.00
56811;BME280;42691;47.234;27.494;2023-01-30T16:11:42;98763.13;;;9.31;100.00